createdAt,value
2018-09-17T00:00:17.612Z,69.58
2018-09-17T00:01:21.934Z,69.58
2018-09-17T00:02:25.872Z,69.99
2018-09-17T00:03:30.724Z,69.53
2018-09-17T00:04:34.203Z,70.68
2018-09-17T00:05:37.179Z,70.76
2018-09-17T00:06:41.204Z,70.51
2018-09-17T00:07:45.140Z,71.01
2018-09-17T00:08:50.128Z,70.17
2018-09-17T00:09:53.315Z,70.22
2018-09-17T00:10:57.113Z,70.25
2018-09-17T00:12:01.231Z,70.61
2018-09-17T00:13:04.562Z,70.33
2018-09-17T00:14:09.957Z,71.07
2018-09-17T00:15:14.065Z,70.90
2018-09-17T00:16:18.357Z,70.65
2018-09-17T00:17:22.651Z,70.06
2018-09-17T00:18:27.476Z,70.00
2018-09-17T00:19:30.694Z,69.12
2018-09-17T00:20:34.027Z,69.27
2018-09-17T00:21:37.526Z,69.05
2018-09-17T00:22:41.774Z,68.92
2018-09-17T00:23:45.367Z,69.45
2018-09-17T00:24:48.424Z,68.96
2018-09-17T00:25:52.282Z,69.04
2018-09-17T00:26:55.393Z,69.09
2018-09-17T00:27:58.452Z,68.76
2018-09-17T00:29:01.563Z,69.05
2018-09-17T00:30:04.881Z,68.83
2018-09-17T00:31:07.986Z,68.80
2018-09-17T00:32:10.969Z,68.37
2018-09-17T00:33:14.032Z,68.72
2018-09-17T00:34:16.925Z,68.78
2018-09-17T00:35:20.133Z,69.15
2018-09-17T00:36:23.488Z,69.17
2018-09-17T00:37:26.462Z,69.00
2018-09-17T00:38:29.342Z,69.09
2018-09-17T00:39:32.227Z,68.81
2018-09-17T00:40:35.490Z,69.05
2018-09-17T00:41:38.483Z,68.25
2018-09-17T00:42:41.875Z,69.07
2018-09-17T00:43:44.814Z,68.68
2018-09-17T00:44:47.830Z,69.75
2018-09-17T00:45:50.824Z,69.17
2018-09-17T00:46:53.732Z,69.39
2018-09-17T00:47:56.661Z,69.61
2018-09-17T00:48:59.673Z,69.32
2018-09-17T00:50:02.697Z,69.08
2018-09-17T00:51:05.947Z,68.93
2018-09-17T00:52:09.071Z,68.91
2018-09-17T00:53:12.124Z,69.86
2018-09-17T00:54:16.357Z,69.67
2018-09-17T00:55:19.422Z,69.74
2018-09-17T00:56:22.161Z,69.41
2018-09-17T00:57:24.930Z,69.12
2018-09-17T00:58:27.683Z,69.53
2018-09-17T00:59:30.411Z,70.43
2018-09-17T01:00:33.136Z,69.96
2018-09-17T01:01:36.192Z,69.94
2018-09-17T01:02:38.926Z,69.19
2018-09-17T01:03:41.640Z,69.54
2018-09-17T01:04:44.348Z,69.29
2018-09-17T01:05:47.147Z,69.18
2018-09-17T01:06:49.945Z,69.49
2018-09-17T01:07:53.002Z,69.84
2018-09-17T01:08:55.773Z,70.14
2018-09-17T01:09:58.536Z,69.53
2018-09-17T01:11:01.284Z,69.85
2018-09-17T01:12:04.053Z,69.91
2018-09-17T01:13:06.858Z,70.09
2018-09-17T01:14:10.577Z,70.77
2018-09-17T01:15:13.296Z,70.51
2018-09-17T01:16:16.074Z,70.96
2018-09-17T01:17:19.396Z,70.63
2018-09-17T01:18:22.144Z,70.74
2018-09-17T01:19:24.907Z,70.92
2018-09-17T01:20:27.984Z,70.60
2018-09-17T01:21:30.757Z,70.87
2018-09-17T01:22:33.470Z,70.65
2018-09-17T01:23:36.277Z,71.05
2018-09-17T01:24:39.069Z,69.92
2018-09-17T01:25:41.805Z,70.00
2018-09-17T01:26:44.967Z,70.85
2018-09-17T01:27:48.530Z,70.81
2018-09-17T01:28:51.436Z,70.39
2018-09-17T01:29:54.282Z,70.52
2018-09-17T01:30:57.113Z,70.02
2018-09-17T01:31:59.903Z,70.07
2018-09-17T01:33:03.064Z,70.38
2018-09-17T01:34:05.871Z,70.35
2018-09-17T01:35:08.747Z,70.20
2018-09-17T01:36:11.561Z,70.56
2018-09-17T01:37:15.648Z,70.22
2018-09-17T01:38:18.461Z,70.18
2018-09-17T01:39:21.218Z,71.25
2018-09-17T01:40:23.977Z,70.93
2018-09-17T01:41:27.110Z,71.33
2018-09-17T01:42:30.001Z,71.02
2018-09-17T01:43:33.401Z,70.98
2018-09-17T01:44:36.462Z,71.27
2018-09-17T01:45:39.833Z,71.00
2018-09-17T01:46:43.867Z,71.15
2018-09-17T01:47:46.667Z,70.90
2018-09-17T01:48:49.425Z,71.62
2018-09-17T01:49:52.176Z,71.81
2018-09-17T01:50:54.932Z,72.32
2018-09-17T01:51:57.718Z,73.43
2018-09-17T01:53:00.562Z,73.46
2018-09-17T01:54:03.334Z,74.04
2018-09-17T01:55:06.065Z,74.14
2018-09-17T01:56:08.834Z,74.16
2018-09-17T01:57:11.606Z,74.58
2018-09-17T01:58:14.382Z,74.94
2018-09-17T01:59:17.184Z,73.83
2018-09-17T02:00:19.923Z,74.43
2018-09-17T02:01:22.758Z,74.17
2018-09-17T02:02:25.821Z,74.40
2018-09-17T02:03:28.566Z,74.79
2018-09-17T02:04:31.301Z,74.78
2018-09-17T02:05:34.123Z,74.68
2018-09-17T02:06:36.876Z,74.80
2018-09-17T02:07:39.625Z,74.99
2018-09-17T02:08:42.653Z,74.84
2018-09-17T02:09:45.442Z,75.44
2018-09-17T02:10:48.230Z,75.32
2018-09-17T02:11:50.997Z,75.83
2018-09-17T02:12:53.733Z,75.36
2018-09-17T02:13:56.550Z,74.36
2018-09-17T02:14:59.625Z,74.48
2018-09-17T02:16:02.379Z,74.38
2018-09-17T02:17:05.501Z,73.87
2018-09-17T02:18:08.265Z,74.46
2018-09-17T02:19:11.132Z,74.73
2018-09-17T02:20:13.909Z,74.69
2018-09-17T02:21:17.117Z,74.09
2018-09-17T02:22:20.917Z,74.42
2018-09-17T02:23:23.748Z,74.06
2018-09-17T02:24:26.582Z,73.94
2018-09-17T02:25:29.360Z,73.31
2018-09-17T02:26:32.108Z,73.79
2018-09-17T02:27:35.213Z,74.33
2018-09-17T02:28:38.505Z,74.15
2018-09-17T02:29:41.337Z,74.68
2018-09-17T02:30:45.002Z,74.53
2018-09-17T02:31:47.842Z,74.14
2018-09-17T02:32:50.697Z,73.83
2018-09-17T02:33:54.052Z,73.25
2018-09-17T02:34:57.021Z,73.83
2018-09-17T02:35:59.980Z,73.86
2018-09-17T02:37:02.751Z,74.46
2018-09-17T02:38:05.544Z,74.03
2018-09-17T02:39:08.668Z,73.86
2018-09-17T02:40:17.868Z,74.00
2018-09-17T02:41:22.453Z,74.25
2018-09-17T02:42:25.250Z,75.08
2018-09-17T02:43:28.169Z,74.72
2018-09-17T02:44:30.950Z,75.16
2018-09-17T02:45:33.677Z,74.41
2018-09-17T02:46:36.877Z,74.30
2018-09-17T02:47:39.617Z,74.97
2018-09-17T02:48:42.409Z,75.28
2018-09-17T02:49:45.179Z,75.31
2018-09-17T02:50:48.054Z,75.64
2018-09-17T02:51:50.812Z,75.74
2018-09-17T02:52:54.083Z,76.01
2018-09-17T02:53:56.937Z,76.33
2018-09-17T02:55:04.412Z,76.60
2018-09-17T02:56:07.273Z,76.26
2018-09-17T02:57:10.034Z,75.56
2018-09-17T02:58:12.781Z,75.42
2018-09-17T02:59:16.027Z,75.20
2018-09-17T03:00:21.277Z,75.44
2018-09-17T03:01:24.052Z,75.47
2018-09-17T03:02:26.820Z,75.52
2018-09-17T03:03:29.630Z,75.09
2018-09-17T03:04:32.535Z,75.43
2018-09-17T03:05:35.874Z,75.64
2018-09-17T03:06:38.683Z,75.46
2018-09-17T03:07:41.434Z,75.28
2018-09-17T03:08:44.207Z,75.84
2018-09-17T03:09:47.010Z,75.81
2018-09-17T03:10:49.794Z,75.33
2018-09-17T03:11:52.568Z,75.33
2018-09-17T03:12:55.315Z,75.20
2018-09-17T03:13:58.145Z,75.05
2018-09-17T03:15:00.910Z,75.17
2018-09-17T03:16:03.701Z,75.08
2018-09-17T03:17:08.083Z,75.36
2018-09-17T03:18:10.885Z,74.80
2018-09-17T03:19:14.492Z,74.85
2018-09-17T03:20:17.375Z,75.23
2018-09-17T03:21:20.196Z,75.54
2018-09-17T03:22:22.969Z,75.47
2018-09-17T03:23:25.744Z,75.75
2018-09-17T03:24:28.573Z,75.10
2018-09-17T03:25:31.329Z,75.51
2018-09-17T03:26:34.087Z,75.19
2018-09-17T03:27:36.841Z,74.88
2018-09-17T03:28:40.008Z,75.52
2018-09-17T03:29:42.775Z,75.63
2018-09-17T03:30:45.579Z,76.13
2018-09-17T03:31:48.376Z,75.92
2018-09-17T03:32:51.176Z,75.84
2018-09-17T03:33:53.958Z,75.87
2018-09-17T03:34:57.230Z,76.02
2018-09-17T03:36:00.047Z,75.83
2018-09-17T03:37:02.894Z,75.97
2018-09-17T03:38:08.041Z,75.97
2018-09-17T03:39:10.816Z,75.99
2018-09-17T03:40:13.589Z,76.11
2018-09-17T03:41:17.020Z,75.80
2018-09-17T03:42:19.778Z,76.25
2018-09-17T03:43:22.567Z,76.37
2018-09-17T03:44:25.338Z,76.73
2018-09-17T03:45:28.094Z,76.63
2018-09-17T03:46:31.265Z,76.72
2018-09-17T03:47:34.134Z,76.85
2018-09-17T03:48:37.678Z,76.75
2018-09-17T03:49:40.467Z,76.49
2018-09-17T03:50:43.220Z,77.15
2018-09-17T03:51:46.104Z,78.01
2018-09-17T03:52:49.170Z,77.86
2018-09-17T03:53:51.941Z,78.08
2018-09-17T03:54:54.760Z,77.95
2018-09-17T03:55:57.527Z,78.32
2018-09-17T03:57:00.278Z,77.98
2018-09-17T03:58:03.072Z,77.79
2018-09-17T03:59:05.829Z,77.95
2018-09-17T04:00:08.641Z,77.37
2018-09-17T04:01:11.410Z,77.85
2018-09-17T04:02:14.153Z,77.63
2018-09-17T04:03:16.950Z,77.38
2018-09-17T04:04:19.718Z,77.13
2018-09-17T04:05:22.559Z,77.18
2018-09-17T04:06:25.316Z,76.95
2018-09-17T04:07:28.032Z,77.43
2018-09-17T04:08:32.032Z,76.82
2018-09-17T04:09:35.179Z,77.25
2018-09-17T04:10:38.006Z,77.68
2018-09-17T04:11:40.754Z,77.94
2018-09-17T04:12:43.514Z,77.42
2018-09-17T04:13:46.305Z,77.85
2018-09-17T04:14:49.029Z,78.02
2018-09-17T04:15:52.402Z,77.34
2018-09-17T04:16:55.215Z,76.96
2018-09-17T04:17:58.473Z,76.85
2018-09-17T04:19:01.217Z,77.05
2018-09-17T04:20:03.970Z,76.55
2018-09-17T04:21:06.700Z,76.76
2018-09-17T04:22:10.320Z,76.94
2018-09-17T04:23:13.059Z,76.60
2018-09-17T04:24:15.813Z,76.64
2018-09-17T04:25:18.578Z,76.60
2018-09-17T04:26:21.335Z,76.70
2018-09-17T04:27:24.060Z,76.37
2018-09-17T04:28:27.135Z,76.80
2018-09-17T04:29:29.893Z,77.28
2018-09-17T04:30:33.637Z,77.73
2018-09-17T04:31:36.380Z,77.97
2018-09-17T04:32:39.182Z,78.39
2018-09-17T04:33:43.055Z,78.58
2018-09-17T04:34:46.106Z,78.77
2018-09-17T04:35:52.730Z,78.63
2018-09-17T04:36:55.504Z,78.23
2018-09-17T04:37:58.256Z,78.13
2018-09-17T04:39:01.549Z,78.22
2018-09-17T04:40:04.306Z,78.49
2018-09-17T04:41:07.347Z,78.29
2018-09-17T04:42:10.148Z,78.55
2018-09-17T04:43:12.950Z,78.34
2018-09-17T04:44:15.791Z,77.74
2018-09-17T04:45:19.170Z,78.52
2018-09-17T04:46:22.071Z,78.10
2018-09-17T04:47:25.311Z,78.21
2018-09-17T04:48:28.118Z,78.21
2018-09-17T04:49:30.885Z,78.30
2018-09-17T04:50:33.668Z,78.57
2018-09-17T04:51:36.495Z,78.83
2018-09-17T04:52:39.283Z,78.86
2018-09-17T04:53:42.043Z,79.41
2018-09-17T04:54:44.847Z,79.82
2018-09-17T04:55:47.668Z,80.03
2018-09-17T04:56:50.815Z,79.96
2018-09-17T04:57:54.276Z,79.60
2018-09-17T04:58:57.345Z,79.41
2018-09-17T05:00:00.104Z,79.26
2018-09-17T05:01:06.411Z,79.52
2018-09-17T05:02:09.326Z,79.46
2018-09-17T05:03:12.081Z,78.59
2018-09-17T05:04:14.862Z,78.95
2018-09-17T05:05:17.989Z,78.76
2018-09-17T05:06:20.776Z,78.67
2018-09-17T05:07:23.591Z,78.96
2018-09-17T05:08:26.349Z,79.13
2018-09-17T05:09:29.756Z,78.46
2018-09-17T05:10:32.489Z,78.13
2018-09-17T05:11:35.559Z,77.81
2018-09-17T05:12:38.349Z,78.10
2018-09-17T05:13:41.141Z,78.20
2018-09-17T05:14:43.909Z,78.37
2018-09-17T05:15:46.802Z,78.48
2018-09-17T05:16:49.594Z,78.30
2018-09-17T05:17:52.919Z,78.51
2018-09-17T05:18:55.750Z,77.64
2018-09-17T05:19:58.754Z,77.48
2018-09-17T05:21:01.521Z,77.34
2018-09-17T05:22:04.634Z,77.73
2018-09-17T05:23:07.440Z,78.30
2018-09-17T05:24:10.613Z,78.52
2018-09-17T05:25:13.527Z,78.78
2018-09-17T05:26:17.370Z,78.56
2018-09-17T05:27:20.129Z,79.32
2018-09-17T05:28:22.984Z,78.50
2018-09-17T05:29:26.522Z,77.98
2018-09-17T05:43:50.502Z,76.07
2018-09-17T05:44:53.551Z,75.57
2018-09-17T05:45:56.281Z,75.52
2018-09-17T05:46:59.029Z,74.75
2018-09-17T05:48:01.837Z,74.65
2018-09-17T05:49:04.959Z,75.49
2018-09-17T05:50:07.764Z,74.30
2018-09-17T05:51:10.519Z,73.75
2018-09-17T05:52:13.528Z,73.80
2018-09-17T05:53:17.975Z,73.34
2018-09-17T05:54:20.732Z,73.72
2018-09-17T05:55:23.800Z,74.20
2018-09-17T05:56:26.769Z,73.62
2018-09-17T05:57:29.546Z,73.85
2018-09-17T05:58:32.342Z,73.82
2018-09-17T05:59:35.324Z,73.88
2018-09-17T06:00:38.120Z,73.49
2018-09-17T06:01:43.477Z,73.74
2018-09-17T06:02:46.345Z,73.59
2018-09-17T06:03:49.422Z,73.19
2018-09-17T06:04:52.265Z,73.18
2018-09-17T06:05:55.064Z,72.67
2018-09-17T06:06:57.949Z,72.24
2018-09-17T06:08:01.236Z,71.02
2018-09-17T06:09:04.564Z,71.38
2018-09-17T06:10:11.309Z,71.51
2018-09-17T06:11:14.068Z,71.84
2018-09-17T06:12:17.082Z,71.55
2018-09-17T06:13:19.970Z,72.07
2018-09-17T06:14:25.535Z,70.92
2018-09-17T06:15:28.300Z,70.83
2018-09-17T06:16:31.987Z,70.22
2018-09-17T06:17:34.876Z,69.83
2018-09-17T06:18:37.634Z,70.05
2018-09-17T06:19:40.404Z,70.72
2018-09-17T06:20:44.455Z,70.15
2018-09-17T06:21:47.456Z,69.69
2018-09-17T06:22:50.218Z,69.25
2018-09-17T06:23:52.984Z,68.57
2018-09-17T06:24:55.855Z,68.16
2018-09-17T06:25:58.667Z,67.33
2018-09-17T06:27:03.183Z,67.29
2018-09-17T06:28:06.035Z,66.23
2018-09-17T06:29:08.796Z,66.40
2018-09-17T06:30:11.700Z,66.96
2018-09-17T06:31:15.272Z,66.91
2018-09-17T06:32:18.124Z,66.26
2018-09-17T06:33:22.955Z,66.49
2018-09-17T06:34:26.576Z,65.61
2018-09-17T06:35:30.485Z,66.00
2018-09-17T06:36:33.399Z,65.29
2018-09-17T06:37:36.183Z,65.10
2018-09-17T06:38:39.047Z,65.07
2018-09-17T06:39:43.196Z,65.07
2018-09-17T06:40:45.949Z,65.66
2018-09-17T06:41:48.708Z,65.26
2018-09-17T06:42:51.577Z,64.64
2018-09-17T06:43:54.342Z,64.84
2018-09-17T06:44:57.362Z,64.25
2018-09-17T06:46:00.615Z,63.43
2018-09-17T06:47:18.034Z,63.32
2018-09-17T06:48:20.820Z,62.24
2018-09-17T06:49:25.078Z,62.97
2018-09-17T06:50:29.350Z,62.85
2018-09-17T06:51:33.508Z,61.88
2018-09-17T06:52:36.646Z,62.42
2018-09-17T06:53:39.551Z,62.23
2018-09-17T06:54:42.396Z,62.35
2018-09-17T06:55:45.249Z,60.99
2018-09-17T06:56:48.786Z,60.74
2018-09-17T06:57:51.658Z,61.06
2018-09-17T07:05:25.993Z,63.54
2018-09-17T07:09:43.966Z,61.23
2018-09-17T07:10:48.731Z,61.07
2018-09-17T07:12:02.898Z,61.63
2018-09-17T07:13:19.006Z,61.61
2018-09-17T07:14:32.284Z,61.25
2018-09-17T07:34:25.946Z,56.48
2018-09-17T07:45:03.107Z,53.93
2018-09-17T07:52:07.534Z,51.35
2018-09-17T07:53:10.513Z,51.16
2018-09-17T07:54:23.791Z,51.37
2018-09-17T07:55:28.020Z,50.97
2018-09-17T07:56:31.246Z,51.87
2018-09-17T07:57:34.298Z,52.20
2018-09-17T07:58:37.194Z,51.39
2018-09-17T07:59:40.058Z,51.12
2018-09-17T08:00:43.152Z,51.21
2018-09-17T08:01:46.089Z,52.60
2018-09-17T08:02:49.515Z,51.51
2018-09-17T08:03:52.358Z,51.98
2018-09-17T08:04:55.240Z,50.92
2018-09-17T08:05:58.002Z,50.19
2018-09-17T08:07:01.211Z,49.25
2018-09-17T08:08:04.014Z,48.83
2018-09-17T08:09:06.793Z,48.44
2018-09-17T08:10:09.653Z,48.77
2018-09-17T08:11:12.480Z,47.79
2018-09-17T08:12:15.736Z,48.37
2018-09-17T08:13:19.036Z,49.03
2018-09-17T08:14:24.832Z,48.48
2018-09-17T08:15:28.118Z,48.87
2018-09-17T08:16:30.951Z,48.04
2018-09-17T08:17:33.685Z,46.82
2018-09-17T08:18:36.433Z,46.60
2018-09-17T08:19:39.763Z,46.36
2018-09-17T08:20:42.592Z,46.82
2018-09-17T08:21:45.375Z,45.31
2018-09-17T08:22:51.374Z,45.67
2018-09-17T08:23:54.849Z,45.32
2018-09-17T08:25:00.448Z,44.19
2018-09-17T08:26:05.658Z,43.98
2018-09-17T08:28:37.123Z,43.46
2018-09-17T08:29:42.055Z,43.83
2018-09-17T08:30:45.723Z,44.32
2018-09-17T08:31:54.095Z,43.77
2018-09-17T08:32:57.291Z,43.21
2018-09-17T08:34:02.548Z,42.32
2018-09-17T08:35:08.335Z,42.58
2018-09-17T08:36:11.954Z,41.80
2018-09-17T08:37:15.758Z,40.61
2018-09-17T08:38:18.581Z,40.71
2018-09-17T08:39:22.251Z,39.92
2018-09-17T08:40:26.625Z,41.07
2018-09-17T08:41:29.598Z,40.57
2018-09-17T08:42:34.248Z,41.27
2018-09-17T08:43:37.625Z,40.23
2018-09-17T08:44:40.341Z,39.10
2018-09-17T08:45:44.528Z,39.78
2018-09-17T08:46:47.319Z,39.10
2018-09-17T08:47:52.450Z,40.12
2018-09-17T08:48:56.454Z,40.43
2018-09-17T08:50:00.250Z,40.04
2018-09-17T08:51:03.095Z,37.93
2018-09-17T08:52:06.601Z,38.83
2018-09-17T08:53:10.804Z,38.02
2018-09-17T08:54:13.661Z,38.22
2018-09-17T08:55:22.143Z,38.07
2018-09-17T08:56:29.780Z,38.74
2018-09-17T08:57:45.241Z,38.43
2018-09-17T08:58:52.997Z,38.33
2018-09-17T09:00:01.438Z,37.55
2018-09-17T09:01:09.209Z,37.87
2018-09-17T09:02:22.717Z,38.66
2018-09-17T09:03:33.361Z,37.37
2018-09-17T09:04:41.008Z,38.56
2018-09-17T09:05:48.696Z,38.65
2018-09-17T09:06:57.268Z,37.20
2018-09-17T09:08:01.452Z,36.29
2018-09-17T09:09:08.537Z,35.73
2018-09-17T09:10:18.935Z,36.74
2018-09-17T09:11:27.433Z,36.48
2018-09-17T09:12:35.247Z,35.21
2018-09-17T09:13:44.596Z,35.85
2018-09-17T09:14:52.280Z,35.79
2018-09-17T09:15:57.648Z,36.52
2018-09-17T09:17:03.290Z,35.97
2018-09-17T09:18:07.245Z,36.16
2018-09-17T09:19:10.524Z,35.82
2018-09-17T09:20:18.151Z,35.19
2018-09-17T09:21:21.239Z,34.79
2018-09-17T09:22:24.232Z,34.81
2018-09-17T09:23:27.387Z,34.30
2018-09-17T09:25:41.965Z,33.30
2018-09-17T09:26:47.530Z,33.78
2018-09-17T09:27:50.678Z,34.60
2018-09-17T09:28:55.734Z,33.68
2018-09-17T09:29:58.746Z,33.61
2018-09-17T09:31:02.603Z,34.54
2018-09-17T09:32:05.509Z,33.10
2018-09-17T09:33:09.430Z,33.95
2018-09-17T09:34:16.191Z,33.06
2018-09-17T09:35:22.323Z,32.58
2018-09-17T09:36:26.452Z,33.11
2018-09-17T09:38:17.569Z,35.04
2018-09-17T09:39:22.180Z,33.83
2018-09-17T09:40:26.276Z,34.30
2018-09-17T09:41:29.220Z,33.34
2018-09-17T09:42:35.186Z,31.65
2018-09-17T09:43:39.518Z,32.86
2018-09-17T09:44:42.329Z,32.27
2018-09-17T09:45:47.617Z,33.28
2018-09-17T09:46:51.452Z,33.94
2018-09-17T09:47:54.219Z,33.84
2018-09-17T09:48:57.319Z,33.26
2018-09-17T09:50:01.261Z,33.68
2018-09-17T09:51:23.469Z,33.98
2018-09-17T09:52:26.484Z,34.62
2018-09-17T09:53:33.389Z,33.99
2018-09-17T09:54:37.768Z,34.57
2018-09-17T09:55:40.761Z,33.17
2018-09-17T09:56:43.757Z,33.86
2018-09-17T09:58:56.448Z,32.74
2018-09-17T10:00:00.444Z,33.54
2018-09-17T10:01:12.896Z,32.72
2018-09-17T10:02:21.401Z,33.13
2018-09-17T10:03:32.634Z,33.50
2018-09-17T10:04:37.283Z,32.83
2018-09-17T10:05:40.842Z,33.30
2018-09-17T10:06:43.674Z,33.31
2018-09-17T10:07:47.237Z,32.64
2018-09-17T10:08:56.457Z,33.69
2018-09-17T10:10:05.359Z,33.19
2018-09-17T10:11:13.145Z,33.48
2018-09-17T10:12:21.547Z,34.99
2018-09-17T10:13:30.147Z,35.03
2018-09-17T10:14:38.837Z,33.86
2018-09-17T10:17:49.786Z,34.46
2018-09-17T10:18:58.184Z,32.63
2018-09-17T10:20:02.509Z,33.80
2018-09-17T10:21:06.403Z,34.20
2018-09-17T10:22:09.396Z,34.34
2018-09-17T10:23:14.719Z,34.04
2018-09-17T10:24:17.606Z,34.14
2018-09-17T10:25:21.346Z,34.99
2018-09-17T10:26:24.738Z,34.75
2018-09-17T10:27:28.793Z,34.98
2018-09-17T10:28:33.309Z,34.83
2018-09-17T10:29:37.815Z,35.24
2018-09-17T10:43:00.074Z,35.54
2018-09-17T10:44:05.204Z,34.52
2018-09-17T10:45:08.527Z,35.22
2018-09-17T10:46:11.602Z,35.82
2018-09-17T10:47:15.700Z,35.42
2018-09-17T10:48:20.081Z,34.58
2018-09-17T10:49:22.954Z,35.26
2018-09-17T10:50:26.509Z,35.99
2018-09-17T10:51:29.495Z,36.46
2018-09-17T10:52:32.361Z,35.95
2018-09-17T10:53:39.443Z,34.46
2018-09-17T10:54:45.124Z,34.01
2018-09-17T10:55:48.227Z,33.99
2018-09-17T10:56:54.165Z,34.39
2018-09-17T10:57:58.371Z,35.29
2018-09-17T10:59:01.298Z,34.32
2018-09-17T11:00:04.568Z,34.72
2018-09-17T11:01:08.645Z,34.91
2018-09-17T11:02:12.849Z,34.13
2018-09-17T11:03:18.642Z,32.63
2018-09-17T11:04:21.784Z,31.51
2018-09-17T11:05:25.451Z,32.30
2018-09-17T11:06:28.397Z,31.89
2018-09-17T11:07:31.784Z,30.64
2018-09-17T11:08:35.139Z,29.84
2018-09-17T11:09:43.515Z,28.76
2018-09-17T11:10:46.438Z,28.78
2018-09-17T11:11:51.260Z,30.56
2018-09-17T11:12:54.310Z,32.42
2018-09-17T11:14:02.588Z,33.18
2018-09-17T11:15:08.512Z,32.56
2018-09-17T11:16:15.083Z,31.76
2018-09-17T11:17:21.272Z,32.45
2018-09-17T11:18:24.701Z,31.56
2018-09-17T11:19:27.721Z,31.24
2018-09-17T11:20:31.378Z,31.15
2018-09-17T11:21:35.188Z,31.55
2018-09-17T11:22:38.692Z,31.34
2018-09-17T11:23:41.615Z,32.23
2018-09-17T11:24:44.521Z,31.60
2018-09-17T11:25:47.675Z,31.41
2018-09-17T11:26:50.846Z,30.53
2018-09-17T11:27:55.519Z,30.05
2018-09-17T11:28:59.327Z,30.83
2018-09-17T11:30:03.194Z,31.21
2018-09-17T11:31:12.781Z,31.31
2018-09-17T11:32:16.692Z,31.80
2018-09-17T11:33:19.805Z,30.45
2018-09-17T11:34:24.319Z,31.11
2018-09-17T11:35:28.494Z,31.31
2018-09-17T11:36:31.373Z,31.08
2018-09-17T11:37:34.556Z,30.85
2018-09-17T11:38:37.471Z,30.14
2018-09-17T11:39:41.564Z,30.16
2018-09-17T11:40:44.415Z,30.48
2018-09-17T11:41:48.284Z,29.98
2018-09-17T11:42:51.183Z,30.28
2018-09-17T11:43:54.901Z,31.25
2018-09-17T11:44:57.651Z,30.42
2018-09-17T11:46:00.448Z,30.53
2018-09-17T11:47:04.979Z,30.20
2018-09-17T11:48:07.883Z,29.85
2018-09-17T11:49:10.633Z,30.07
2018-09-17T11:50:13.748Z,30.12
2018-09-17T11:51:21.381Z,30.52
2018-09-17T11:52:24.269Z,30.46
2018-09-17T11:53:30.164Z,29.77
2018-09-17T11:54:32.982Z,29.63
2018-09-17T11:55:36.487Z,28.85
2018-09-17T11:56:39.568Z,31.52
2018-09-17T11:57:42.368Z,32.01
2018-09-17T11:58:45.869Z,32.19
2018-09-17T11:59:49.443Z,30.59
2018-09-17T12:00:57.077Z,31.15
2018-09-17T12:02:10.976Z,31.91
2018-09-17T12:03:19.203Z,31.38
2018-09-17T12:04:27.973Z,30.95
2018-09-17T12:05:35.858Z,29.95
2018-09-17T12:06:43.510Z,30.32
2018-09-17T12:07:47.075Z,29.89
2018-09-17T12:08:50.172Z,28.72
2018-09-17T12:09:52.953Z,28.22
2018-09-17T12:10:55.812Z,27.42
2018-09-17T12:11:58.605Z,26.62
2018-09-17T12:13:01.437Z,26.73
2018-09-17T12:14:04.208Z,25.78
2018-09-17T12:15:07.448Z,26.57
2018-09-17T12:16:10.219Z,25.68
2018-09-17T12:17:12.999Z,25.76
2018-09-17T12:18:16.589Z,24.89
2018-09-17T12:19:19.413Z,25.47
2018-09-17T12:20:22.468Z,27.06
2018-09-17T12:21:26.126Z,27.57
2018-09-17T12:22:29.422Z,26.38
2018-09-17T12:23:32.554Z,28.39
2018-09-17T12:24:36.644Z,29.02
2018-09-17T12:25:41.166Z,27.32
2018-09-17T12:26:47.337Z,28.40
2018-09-17T12:27:50.391Z,28.11
2018-09-17T12:28:53.178Z,27.64
2018-09-17T12:29:57.635Z,27.61
2018-09-17T12:31:02.701Z,27.69
2018-09-17T12:32:06.487Z,27.21
2018-09-17T12:33:09.336Z,28.00
2018-09-17T12:34:12.517Z,27.18
2018-09-17T12:35:15.282Z,27.13
2018-09-17T12:36:18.058Z,27.80
2018-09-17T12:37:21.984Z,27.40
2018-09-17T12:38:24.757Z,27.14
2018-09-17T12:39:28.800Z,28.51
2018-09-17T12:40:34.602Z,28.56
2018-09-17T12:41:37.378Z,28.28
2018-09-17T12:42:40.264Z,28.43
2018-09-17T12:43:43.064Z,27.87
2018-09-17T12:44:46.790Z,27.03
2018-09-17T12:45:51.118Z,27.09
2018-09-17T12:46:55.032Z,28.33
2018-09-17T12:47:57.873Z,27.38
2018-09-17T12:49:02.161Z,28.09
2018-09-17T12:50:05.239Z,27.34
2018-09-17T12:51:09.618Z,27.04
2018-09-17T12:52:12.441Z,26.83
2018-09-17T12:53:16.253Z,27.42
2018-09-17T12:54:19.064Z,26.99
2018-09-17T12:55:21.860Z,27.80
2018-09-17T12:56:25.390Z,27.31
2018-09-17T12:57:28.223Z,26.91
2018-09-17T12:58:32.580Z,26.85
2018-09-17T12:59:35.719Z,26.17
2018-09-17T13:00:38.796Z,27.11
2018-09-17T13:01:43.266Z,27.16
2018-09-17T13:02:46.027Z,26.30
2018-09-17T13:03:49.565Z,25.91
2018-09-17T13:04:52.367Z,26.39
2018-09-17T13:05:59.001Z,26.12
2018-09-17T13:07:03.739Z,25.28
2018-09-17T13:08:06.513Z,24.64
2018-09-17T13:09:11.520Z,25.63
2018-09-17T13:10:14.371Z,25.53
2018-09-17T13:11:17.183Z,27.83
2018-09-17T13:12:20.308Z,28.05
2018-09-17T13:13:23.088Z,27.86
2018-09-17T13:14:25.932Z,27.45
2018-09-17T13:15:28.730Z,26.60
2018-09-17T13:16:31.567Z,25.83
2018-09-17T13:17:34.374Z,25.97
2018-09-17T13:18:37.423Z,26.79
2018-09-17T13:19:40.289Z,27.13
2018-09-17T13:20:43.972Z,27.23
2018-09-17T13:21:46.748Z,26.97
2018-09-17T13:22:50.693Z,27.53
2018-09-17T13:23:53.495Z,26.64
2018-09-17T13:24:59.008Z,26.88
2018-09-17T13:26:04.345Z,27.16
2018-09-17T13:27:08.976Z,27.33
2018-09-17T13:28:12.390Z,27.25
2018-09-17T13:29:15.146Z,26.96
2018-09-17T13:30:18.086Z,26.83
2018-09-17T13:31:21.828Z,26.84
2018-09-17T13:32:24.637Z,26.51
2018-09-17T13:33:27.546Z,27.14
2018-09-17T13:34:30.369Z,26.24
2018-09-17T13:35:33.342Z,26.01
2018-09-17T13:36:36.494Z,26.39
2018-09-17T13:37:40.834Z,25.98
2018-09-17T13:38:43.645Z,26.40
2018-09-17T13:39:46.877Z,26.64
2018-09-17T13:40:49.847Z,26.42
2018-09-17T13:41:52.610Z,26.34
2018-09-17T13:42:55.914Z,25.52
2018-09-17T13:43:59.173Z,26.25
2018-09-17T13:45:02.311Z,24.75
2018-09-17T13:46:11.990Z,25.59
2018-09-17T13:47:16.187Z,25.57
2018-09-17T13:48:20.553Z,25.28
2018-09-17T13:49:24.128Z,26.56
2018-09-17T13:50:27.357Z,25.75
2018-09-17T13:51:30.942Z,25.56
2018-09-17T13:52:33.739Z,26.72
2018-09-17T13:53:47.343Z,26.31
2018-09-17T13:54:52.124Z,26.51
2018-09-17T13:55:54.904Z,26.37
2018-09-17T13:56:58.089Z,26.74
2018-09-17T13:58:01.655Z,26.48
2018-09-17T13:59:04.559Z,25.57
2018-09-17T14:00:09.031Z,23.67
2018-09-17T14:01:12.973Z,23.63
2018-09-17T14:02:16.665Z,23.84
2018-09-17T14:03:20.395Z,23.04
2018-09-17T14:04:23.706Z,23.84
2018-09-17T14:05:26.894Z,23.38
2018-09-17T14:06:30.909Z,22.93
2018-09-17T14:07:33.859Z,23.26
2018-09-17T14:08:36.753Z,24.06
2018-09-17T14:09:42.093Z,24.62
2018-09-17T14:10:45.721Z,25.81
2018-09-17T14:11:48.532Z,26.28
2018-09-17T14:12:53.490Z,24.94
2018-09-17T14:13:56.260Z,24.88
2018-09-17T14:14:59.728Z,26.34
2018-09-17T14:16:08.070Z,27.68
2018-09-17T14:17:11.232Z,26.22
2018-09-17T14:18:14.413Z,26.80
2018-09-17T14:19:17.507Z,27.49
2018-09-17T14:20:20.266Z,26.41
2018-09-17T14:21:28.439Z,27.15
2018-09-17T14:23:40.717Z,26.58
2018-09-17T14:24:43.831Z,26.21
2018-09-17T14:25:47.756Z,26.10
2018-09-17T14:26:51.441Z,25.86
2018-09-17T14:27:54.630Z,27.21
2018-09-17T14:28:58.773Z,25.88
2018-09-17T14:30:02.340Z,26.71
2018-09-17T14:31:08.622Z,26.17
2018-09-17T14:32:16.281Z,26.98
2018-09-17T14:33:24.139Z,25.79
2018-09-17T14:34:29.664Z,26.64
2018-09-17T14:35:39.609Z,26.10
2018-09-17T14:36:51.460Z,26.24
2018-09-17T14:38:11.363Z,25.67
2018-09-17T14:40:24.049Z,26.14
2018-09-17T14:41:27.354Z,25.59
2018-09-17T14:42:31.416Z,25.07
2018-09-17T14:43:37.244Z,25.97
2018-09-17T14:44:42.342Z,24.89
2018-09-17T14:47:16.556Z,25.30
2018-09-17T14:48:20.771Z,25.21
2018-09-17T14:49:23.500Z,25.33
2018-09-17T14:51:40.671Z,26.19
2018-09-17T14:52:44.815Z,25.41
2018-09-17T14:53:51.649Z,26.50
2018-09-17T14:54:54.738Z,25.98
2018-09-17T14:55:58.565Z,25.01
2018-09-17T14:57:02.323Z,25.44
2018-09-17T14:58:06.487Z,25.19
2018-09-17T14:59:09.237Z,25.93
2018-09-17T15:00:13.956Z,25.41
2018-09-17T15:01:16.782Z,25.13
2018-09-17T15:02:19.764Z,24.82
2018-09-17T15:03:23.386Z,25.60